createdAt,value
2019-03-21T00:01:16.456Z,31.93
2019-03-21T00:03:42.789Z,29.40
2019-03-21T00:06:12.114Z,49.83
2019-03-21T00:08:38.141Z,66.13
2019-03-21T00:11:41.747Z,39.93
2019-03-21T00:14:14.373Z,31.57
2019-03-21T00:16:40.552Z,32.73
2019-03-21T00:19:06.743Z,38.20
2019-03-21T00:21:32.908Z,33.53
2019-03-21T00:23:59.042Z,38.83
2019-03-21T00:26:25.077Z,35.70
2019-03-21T00:28:51.271Z,33.40
2019-03-21T00:31:17.315Z,38.33
2019-03-21T00:33:44.379Z,34.30
2019-03-21T00:36:10.512Z,39.83
2019-03-21T00:38:36.544Z,37.00
2019-03-21T00:41:02.963Z,49.07
2019-03-21T00:43:29.108Z,37.93
2019-03-21T00:45:55.193Z,41.03
2019-03-21T00:48:21.424Z,38.13
2019-03-21T00:50:47.571Z,39.13
2019-03-21T00:53:13.608Z,35.67
2019-03-21T00:55:42.845Z,37.03
2019-03-21T00:58:09.004Z,36.60
2019-03-21T01:00:41.442Z,40.53
2019-03-21T01:03:09.203Z,38.53
2019-03-21T01:05:35.329Z,41.13
2019-03-21T01:08:01.456Z,38.47
2019-03-21T01:10:31.574Z,36.40
2019-03-21T01:12:57.678Z,35.10
2019-03-21T01:15:23.724Z,37.37
2019-03-21T01:17:49.926Z,35.47
2019-03-21T01:20:17.790Z,34.87
2019-03-21T01:22:44.838Z,38.10
2019-03-21T01:25:40.424Z,32.03
2019-03-21T01:28:06.484Z,36.83
2019-03-21T01:30:32.698Z,32.47
2019-03-21T01:32:58.837Z,39.73
2019-03-21T01:35:24.958Z,34.80
2019-03-21T01:37:51.019Z,35.60
2019-03-21T01:40:33.021Z,34.57
2019-03-21T01:42:59.223Z,35.83
2019-03-21T01:45:25.748Z,35.50
2019-03-21T01:47:53.253Z,37.67
2019-03-21T01:50:21.894Z,32.93
2019-03-21T01:52:48.091Z,37.57
2019-03-21T01:55:14.326Z,36.80
2019-03-21T01:57:40.561Z,37.03
2019-03-21T02:00:22.927Z,36.07
2019-03-21T02:02:50.998Z,37.40
2019-03-21T02:05:18.149Z,34.73
2019-03-21T02:07:44.340Z,40.47
2019-03-21T02:10:16.107Z,38.13
2019-03-21T02:12:42.237Z,41.10
2019-03-21T02:15:11.907Z,39.37
2019-03-21T02:17:38.152Z,36.10
2019-03-21T02:20:08.123Z,42.60
2019-03-21T02:22:34.251Z,37.20
2019-03-21T02:25:00.670Z,33.57
2019-03-21T02:27:26.945Z,41.40
2019-03-21T02:29:53.026Z,44.23
2019-03-21T02:32:19.200Z,41.10
2019-03-21T02:34:45.255Z,39.17
2019-03-21T02:37:11.379Z,39.67
2019-03-21T02:39:37.657Z,37.03
2019-03-21T02:42:04.137Z,42.67
2019-03-21T02:44:30.349Z,41.80
2019-03-21T02:46:57.025Z,46.87
2019-03-21T02:49:23.202Z,39.97
2019-03-21T02:51:50.599Z,43.00
2019-03-21T02:54:16.724Z,45.37
2019-03-21T02:56:43.134Z,41.40
2019-03-21T02:59:09.666Z,52.27
2019-03-21T03:01:35.866Z,40.70
2019-03-21T03:04:02.228Z,56.00
2019-03-21T03:06:28.254Z,51.23
2019-03-21T03:08:54.340Z,50.00
2019-03-21T03:11:23.298Z,48.50
2019-03-21T03:13:50.131Z,56.37
2019-03-21T03:16:16.819Z,50.17
2019-03-21T03:18:42.872Z,47.97
2019-03-21T03:21:09.012Z,59.70
2019-03-21T03:23:35.032Z,59.07
2019-03-21T03:26:01.291Z,50.30
2019-03-21T03:28:31.575Z,52.33
2019-03-21T03:30:57.877Z,60.60
2019-03-21T03:33:24.367Z,56.53
2019-03-21T03:35:52.511Z,61.97
2019-03-21T03:38:18.793Z,60.33
2019-03-21T03:40:59.725Z,65.67
2019-03-21T03:43:25.943Z,67.50
2019-03-21T03:45:52.878Z,60.43
2019-03-21T03:48:20.179Z,59.37
2019-03-21T03:50:46.688Z,59.23
2019-03-21T03:53:12.809Z,65.20
2019-03-21T03:55:38.953Z,63.00
2019-03-21T03:58:11.685Z,58.80
2019-03-21T04:00:40.157Z,64.87
2019-03-21T04:03:06.842Z,63.90
2019-03-21T04:05:33.117Z,62.20
2019-03-21T04:07:59.705Z,64.10
2019-03-21T04:10:31.987Z,63.87
2019-03-21T04:12:58.717Z,67.27
2019-03-21T04:15:26.695Z,74.90
2019-03-21T04:17:52.984Z,66.97
2019-03-21T04:20:22.109Z,64.13
2019-03-21T04:22:49.082Z,61.50
2019-03-21T04:25:18.776Z,69.50
2019-03-21T04:27:45.365Z,66.47
2019-03-21T04:30:14.223Z,77.77
2019-03-21T04:32:40.625Z,74.27
2019-03-21T04:35:09.728Z,70.00
2019-03-21T04:37:36.264Z,66.60
2019-03-21T04:40:05.669Z,73.13
2019-03-21T04:42:31.835Z,69.00
2019-03-21T04:44:58.874Z,69.60
2019-03-21T04:47:25.124Z,66.63
2019-03-21T04:49:51.280Z,75.60
2019-03-21T04:52:17.329Z,79.07
2019-03-21T04:54:43.649Z,70.30
2019-03-21T04:57:09.736Z,71.13
2019-03-21T04:59:36.227Z,72.50
2019-03-21T05:02:02.853Z,75.57
2019-03-21T05:04:29.815Z,69.37
2019-03-21T05:06:57.222Z,76.30
2019-03-21T05:09:23.278Z,76.00
2019-03-21T05:11:50.126Z,76.77
2019-03-21T05:14:17.256Z,75.20
2019-03-21T05:16:43.365Z,80.97
2019-03-21T05:19:09.417Z,72.57
2019-03-21T05:21:35.599Z,80.73
2019-03-21T05:24:08.516Z,81.20
2019-03-21T05:26:37.527Z,86.03
2019-03-21T05:29:03.866Z,85.00
2019-03-21T05:31:34.354Z,86.37
2019-03-21T05:34:00.913Z,91.40
2019-03-21T05:36:27.035Z,87.77
2019-03-21T05:38:53.327Z,79.30
2019-03-21T05:41:20.148Z,85.93
2019-03-21T05:43:50.842Z,87.90
2019-03-21T05:46:26.524Z,92.77
2019-03-21T05:48:46.167Z,86.67
2019-03-21T05:51:12.395Z,82.30
2019-03-21T05:53:38.420Z,77.83
2019-03-21T05:56:05.207Z,80.40
2019-03-21T05:58:41.586Z,84.03
2019-03-21T06:05:00.698Z,83.10
2019-03-21T06:07:31.682Z,75.03
2019-03-21T06:09:58.015Z,80.90
2019-03-21T06:12:24.072Z,76.97
2019-03-21T06:15:01.494Z,65.97
2019-03-21T06:17:31.439Z,73.30
2019-03-21T06:20:30.407Z,68.13
2019-03-21T06:23:03.473Z,68.80
2019-03-21T06:25:49.513Z,70.10
2019-03-21T06:28:17.633Z,66.13
2019-03-21T06:30:44.062Z,66.97
2019-03-21T06:33:10.842Z,67.90
2019-03-21T06:35:37.002Z,66.80
2019-03-21T06:38:03.219Z,64.50
2019-03-21T06:40:29.347Z,63.30
2019-03-21T06:42:55.559Z,61.73
2019-03-21T06:45:21.601Z,62.20
2019-03-21T06:47:47.726Z,58.00
2019-03-21T06:50:13.939Z,62.20
2019-03-21T06:52:45.059Z,53.83
2019-03-21T06:55:11.739Z,57.43
2019-03-21T06:57:38.090Z,54.20
2019-03-21T07:00:09.785Z,62.10
2019-03-21T07:02:35.955Z,57.40
2019-03-21T07:05:04.439Z,56.37
2019-03-21T07:07:30.439Z,62.80
2019-03-21T07:09:58.464Z,59.67
2019-03-21T07:12:32.868Z,61.47
2019-03-21T07:14:58.493Z,59.90
2019-03-21T07:17:24.675Z,59.83
2019-03-21T07:19:53.138Z,59.37
2019-03-21T07:22:22.291Z,54.73
2019-03-21T07:24:51.472Z,54.33
2019-03-21T07:27:17.757Z,54.60
2019-03-21T07:29:57.085Z,61.33
2019-03-21T07:32:34.713Z,58.40
2019-03-21T07:35:03.596Z,61.87
2019-03-21T07:37:37.320Z,58.50
2019-03-21T07:40:07.231Z,50.90
2019-03-21T07:42:36.272Z,54.17
2019-03-21T07:45:08.799Z,46.87
2019-03-21T07:47:35.570Z,50.67
2019-03-21T07:50:01.674Z,47.73
2019-03-21T07:52:30.461Z,49.47
2019-03-21T07:55:01.298Z,53.57
2019-03-21T07:57:41.246Z,55.07
2019-03-21T08:00:59.004Z,53.50
2019-03-21T08:03:41.267Z,54.20
2019-03-21T08:06:07.355Z,51.20
2019-03-21T08:08:33.500Z,50.93
2019-03-21T08:11:02.709Z,50.10
2019-03-21T08:13:32.757Z,45.70
2019-03-21T08:15:59.575Z,47.97
2019-03-21T08:18:26.456Z,46.77
2019-03-21T08:20:57.405Z,46.47
2019-03-21T08:23:21.559Z,52.33
2019-03-21T08:25:48.078Z,49.80
2019-03-21T08:28:14.288Z,48.67
2019-03-21T08:31:02.147Z,57.63
2019-03-21T08:33:30.499Z,48.40
2019-03-21T08:35:58.714Z,48.97
2019-03-21T08:38:24.747Z,49.27
2019-03-21T08:40:53.787Z,53.50
2019-03-21T08:43:19.984Z,53.50
2019-03-21T08:45:47.534Z,55.10
2019-03-21T08:48:16.129Z,54.73
2019-03-21T08:50:42.562Z,55.30
2019-03-21T08:53:08.849Z,57.53
2019-03-21T08:55:35.417Z,47.07
2019-03-21T08:58:02.173Z,55.43
2019-03-21T09:00:34.075Z,51.70
2019-03-21T09:02:56.406Z,51.93
2019-03-21T09:05:22.605Z,52.23
2019-03-21T09:07:48.721Z,45.83
2019-03-21T09:10:14.994Z,39.17
2019-03-21T09:12:42.650Z,42.93
2019-03-21T09:15:09.537Z,36.60
2019-03-21T09:17:35.812Z,35.83
2019-03-21T09:20:04.837Z,32.87
2019-03-21T09:22:30.882Z,35.77
2019-03-21T09:24:56.932Z,37.30
2019-03-21T09:27:23.266Z,43.33
2019-03-21T09:29:53.789Z,43.43
2019-03-21T09:32:17.336Z,44.80
2019-03-21T09:34:43.795Z,45.07
2019-03-21T09:37:09.913Z,47.77
2019-03-21T09:39:35.970Z,50.07
2019-03-21T09:42:02.278Z,47.07
2019-03-21T09:44:29.063Z,50.70
2019-03-21T09:46:55.671Z,53.70
2019-03-21T09:49:22.740Z,64.20
2019-03-21T09:51:49.319Z,55.63
2019-03-21T09:54:15.400Z,59.50
2019-03-21T09:56:41.968Z,55.67
2019-03-21T09:59:08.103Z,56.93
2019-03-21T10:01:34.126Z,53.90
2019-03-21T10:04:00.237Z,50.73
2019-03-21T10:06:26.304Z,53.23
2019-03-21T10:08:52.525Z,48.10
2019-03-21T10:11:18.566Z,48.13
2019-03-21T10:13:44.631Z,48.87
2019-03-21T10:16:11.139Z,47.13
2019-03-21T10:18:37.523Z,47.90
2019-03-21T10:21:03.562Z,37.27
2019-03-21T10:23:29.603Z,39.83
2019-03-21T10:25:55.810Z,39.10
2019-03-21T10:28:22.072Z,40.83
2019-03-21T10:30:48.124Z,35.03
2019-03-21T10:33:14.258Z,35.10
2019-03-21T10:35:40.558Z,36.90
2019-03-21T10:38:06.771Z,36.20
2019-03-21T10:40:32.909Z,36.23
2019-03-21T10:42:59.316Z,36.03
2019-03-21T10:45:25.556Z,36.73
2019-03-21T10:47:52.071Z,41.27
2019-03-21T10:50:28.030Z,39.07
2019-03-21T10:52:54.152Z,33.97
2019-03-21T10:55:20.250Z,38.10
2019-03-21T10:57:46.506Z,39.83
2019-03-21T11:00:12.546Z,39.97
2019-03-21T11:02:38.582Z,41.70
2019-03-21T11:05:05.429Z,38.93
2019-03-21T11:07:31.644Z,43.70
2019-03-21T11:09:57.680Z,45.60
2019-03-21T11:12:24.172Z,42.47
2019-03-21T11:14:50.212Z,47.70
2019-03-21T11:17:16.883Z,51.20
2019-03-21T11:19:43.008Z,49.37
2019-03-21T11:22:09.137Z,45.40
2019-03-21T11:24:35.156Z,47.33
2019-03-21T11:27:01.288Z,48.43
2019-03-21T11:29:28.781Z,41.17
2019-03-21T11:31:54.843Z,45.13
2019-03-21T11:34:20.899Z,42.20
2019-03-21T11:36:46.926Z,45.20
2019-03-21T11:39:12.990Z,45.57
2019-03-21T11:41:39.109Z,51.97
2019-03-21T11:44:05.235Z,45.67
2019-03-21T11:46:31.390Z,49.60
2019-03-21T11:48:57.694Z,51.50
2019-03-21T11:51:23.993Z,51.73
2019-03-21T11:53:50.047Z,46.50
2019-03-21T11:56:17.331Z,50.60
2019-03-21T11:58:43.939Z,43.67
2019-03-21T12:01:10.299Z,43.57
2019-03-21T12:03:36.454Z,42.00
2019-03-21T12:06:03.098Z,41.50
2019-03-21T12:08:29.776Z,43.63
2019-03-21T12:10:56.065Z,43.30
2019-03-21T12:13:22.215Z,46.13
2019-03-21T12:15:50.254Z,42.70
2019-03-21T12:18:16.739Z,47.77
2019-03-21T12:20:42.899Z,43.97
2019-03-21T12:23:11.911Z,41.53
2019-03-21T12:25:38.025Z,45.00
2019-03-21T12:28:04.455Z,44.80
2019-03-21T12:30:35.963Z,44.57
2019-03-21T12:33:04.177Z,41.00
2019-03-21T12:35:30.443Z,42.53
2019-03-21T12:37:57.145Z,39.53
2019-03-21T12:40:23.346Z,39.17
2019-03-21T12:42:49.436Z,38.30
2019-03-21T12:45:15.835Z,38.17
2019-03-21T12:47:42.587Z,40.40
2019-03-21T12:50:09.118Z,40.60
2019-03-21T12:55:05.624Z,41.33
2019-03-21T12:57:31.812Z,42.93
2019-03-21T12:59:57.916Z,40.00
2019-03-21T13:02:32.030Z,39.07
2019-03-21T13:04:52.291Z,41.80
2019-03-21T13:07:13.445Z,36.70
2019-03-21T13:07:18.952Z,43.83
2019-03-21T13:09:45.950Z,43.60
2019-03-21T13:12:12.354Z,41.60
2019-03-21T13:14:38.639Z,36.20
2019-03-21T13:17:04.755Z,41.63
2019-03-21T13:19:30.828Z,38.33
2019-03-21T13:21:56.982Z,39.07
2019-03-21T13:24:23.054Z,40.37
2019-03-21T13:26:49.106Z,39.13
2019-03-21T13:29:15.716Z,44.17
2019-03-21T13:31:41.766Z,44.63
2019-03-21T13:34:07.823Z,46.00
2019-03-21T13:36:35.132Z,43.10
2019-03-21T13:39:01.480Z,42.30
2019-03-21T13:41:27.736Z,51.73
2019-03-21T13:43:53.824Z,48.67
2019-03-21T13:46:20.031Z,38.53
2019-03-21T13:48:46.086Z,43.13
2019-03-21T13:51:12.889Z,45.17
2019-03-21T13:53:39.117Z,49.83
2019-03-21T13:56:05.341Z,42.70
2019-03-21T13:58:31.464Z,40.60
2019-03-21T14:00:57.604Z,33.70
2019-03-21T14:03:25.414Z,33.80
2019-03-21T14:05:51.843Z,27.83
2019-03-21T14:08:18.175Z,32.63
2019-03-21T14:10:44.259Z,31.27
2019-03-21T14:13:10.405Z,26.93
2019-03-21T14:15:36.607Z,26.67
2019-03-21T14:18:02.809Z,25.57
2019-03-21T14:20:29.235Z,29.10
2019-03-21T14:22:55.452Z,25.47
2019-03-21T14:25:22.071Z,24.77
2019-03-21T14:27:48.267Z,22.90
2019-03-21T14:30:23.658Z,25.17
2019-03-21T14:32:49.789Z,40.30
2019-03-21T14:35:16.181Z,31.33
2019-03-21T14:37:42.301Z,36.93
2019-03-21T14:40:10.890Z,25.43
2019-03-21T14:42:37.053Z,31.20
2019-03-21T14:45:05.634Z,27.80
2019-03-21T14:47:36.016Z,38.83
2019-03-21T14:49:59.680Z,29.37
2019-03-21T14:52:28.656Z,28.27
2019-03-21T14:54:58.974Z,30.37
2019-03-21T14:57:35.439Z,31.50
2019-03-21T15:00:08.539Z,29.47
2019-03-21T15:02:34.945Z,30.10
2019-03-21T15:05:08.674Z,36.03
2019-03-21T15:07:35.311Z,45.23
2019-03-21T15:10:05.308Z,33.20
2019-03-21T15:12:32.702Z,34.03
2019-03-21T15:14:59.011Z,32.47
2019-03-21T15:17:31.456Z,28.47
2019-03-21T15:19:59.765Z,30.60
2019-03-21T15:22:26.197Z,31.93
2019-03-21T15:24:55.869Z,29.60
2019-03-21T15:27:22.104Z,32.07
2019-03-21T15:29:50.507Z,30.90
2019-03-21T15:35:26.393Z,34.90
2019-03-21T15:37:52.930Z,34.30
2019-03-21T15:40:19.198Z,31.10
2019-03-21T15:42:45.413Z,30.73
2019-03-21T15:45:22.650Z,36.17
2019-03-21T15:47:45.209Z,35.00
2019-03-21T15:50:32.546Z,29.97
2019-03-21T15:52:59.905Z,33.83
2019-03-21T15:55:26.491Z,34.00
2019-03-21T15:57:53.585Z,34.30
2019-03-21T16:00:29.080Z,35.13
2019-03-21T16:02:57.575Z,36.37
2019-03-21T16:05:23.738Z,37.47
2019-03-21T16:07:51.416Z,32.60
2019-03-21T16:10:17.478Z,38.43
2019-03-21T16:12:43.813Z,37.20
2019-03-21T16:15:10.296Z,38.43
2019-03-21T16:17:36.765Z,44.43
2019-03-21T16:20:07.154Z,39.80
2019-03-21T16:22:34.900Z,41.43
2019-03-21T16:25:01.724Z,51.63
2019-03-21T16:27:27.950Z,38.40
2019-03-21T16:29:54.170Z,45.83
2019-03-21T16:32:20.287Z,46.47
2019-03-21T16:34:48.138Z,44.27
2019-03-21T16:37:14.526Z,42.10
2019-03-21T16:39:40.876Z,49.20
2019-03-21T16:42:07.057Z,43.57
2019-03-21T16:44:33.282Z,44.17
2019-03-21T16:46:59.684Z,39.47
2019-03-21T16:49:25.826Z,43.93
2019-03-21T16:51:51.959Z,41.33
2019-03-21T16:54:18.051Z,41.80
2019-03-21T16:56:44.579Z,44.40
2019-03-21T16:59:10.632Z,40.70
2019-03-21T17:01:36.746Z,43.60
2019-03-21T17:04:03.134Z,45.10
2019-03-21T17:06:29.322Z,40.20
2019-03-21T17:08:55.586Z,39.53
2019-03-21T17:11:21.800Z,43.70
2019-03-21T17:13:48.034Z,40.47
2019-03-21T17:16:15.062Z,41.97
2019-03-21T17:18:41.341Z,41.07
2019-03-21T17:21:09.498Z,47.17
2019-03-21T17:23:38.151Z,43.70
2019-03-21T17:26:04.948Z,39.57
2019-03-21T17:28:31.326Z,42.37
2019-03-21T17:30:57.454Z,40.07
2019-03-21T17:33:23.568Z,40.33
2019-03-21T17:35:49.786Z,40.10
2019-03-21T17:38:15.803Z,43.20
2019-03-21T17:40:42.648Z,39.20
2019-03-21T17:43:09.389Z,38.33
2019-03-21T17:45:35.427Z,41.00
2019-03-21T17:48:01.666Z,39.57
2019-03-21T17:50:32.272Z,41.57
2019-03-21T17:52:58.883Z,43.73
2019-03-21T17:55:25.007Z,39.90
2019-03-21T17:57:51.059Z,38.87
2019-03-21T18:00:21.082Z,40.63
2019-03-21T18:02:47.769Z,43.63
2019-03-21T18:05:14.045Z,40.37
2019-03-21T18:07:40.236Z,38.60
2019-03-21T18:10:10.104Z,40.53
2019-03-21T18:12:36.409Z,42.40
2019-03-21T18:15:06.119Z,40.17
2019-03-21T18:17:32.357Z,40.17
2019-03-21T18:19:58.701Z,39.23
2019-03-21T18:22:24.915Z,38.30
2019-03-21T18:24:54.041Z,38.03
2019-03-21T18:27:19.397Z,35.77
2019-03-21T18:29:45.632Z,38.90
2019-03-21T18:32:11.710Z,43.10
2019-03-21T18:34:37.818Z,38.40
2019-03-21T18:37:04.243Z,43.17
2019-03-21T18:39:31.583Z,38.30
2019-03-21T18:41:57.744Z,38.50
2019-03-21T18:44:24.369Z,40.40
2019-03-21T18:46:50.699Z,40.40
2019-03-21T18:49:16.922Z,40.33
2019-03-21T18:51:43.171Z,40.20
2019-03-21T18:54:09.937Z,41.63
2019-03-21T18:56:36.147Z,41.13
2019-03-21T18:59:02.637Z,45.70
2019-03-21T19:01:29.219Z,39.23
2019-03-21T19:03:55.593Z,40.57
2019-03-21T19:06:21.755Z,40.30
2019-03-21T19:08:48.183Z,43.90
2019-03-21T19:11:14.623Z,46.10
2019-03-21T19:13:41.200Z,42.43
2019-03-21T19:16:07.409Z,40.67
2019-03-21T19:18:33.449Z,41.50
2019-03-21T19:20:59.560Z,46.07
2019-03-21T19:23:26.247Z,42.30
2019-03-21T19:25:52.403Z,41.40
2019-03-21T19:28:18.840Z,45.33
2019-03-21T19:30:46.472Z,38.93
2019-03-21T19:33:12.746Z,37.97
2019-03-21T19:35:38.899Z,39.10
2019-03-21T19:38:05.289Z,40.67
2019-03-21T19:40:31.720Z,43.40
2019-03-21T19:42:57.784Z,41.20
2019-03-21T19:45:23.936Z,39.57
2019-03-21T19:47:50.428Z,41.43
2019-03-21T19:50:19.675Z,44.43
2019-03-21T19:52:45.794Z,42.63
2019-03-21T19:55:13.051Z,46.17
2019-03-21T19:57:39.219Z,43.47
2019-03-21T20:00:09.385Z,45.97
2019-03-21T20:02:38.090Z,43.43
2019-03-21T20:05:06.645Z,47.80
2019-03-21T20:07:32.763Z,49.90
2019-03-21T20:09:59.009Z,48.90
2019-03-21T20:12:25.256Z,48.73
2019-03-21T20:14:51.458Z,55.90
2019-03-21T20:17:17.659Z,53.30
2019-03-21T20:19:43.680Z,48.20
2019-03-21T20:22:09.917Z,69.00
2019-03-21T20:24:36.182Z,70.43
2019-03-21T20:27:02.563Z,63.63
2019-03-21T20:29:29.306Z,68.23
2019-03-21T20:31:55.396Z,62.50
2019-03-21T20:34:21.578Z,60.53
2019-03-21T20:36:47.811Z,51.43
2019-03-21T20:39:14.200Z,55.50
2019-03-21T20:41:40.348Z,51.83
2019-03-21T20:44:15.000Z,52.93
2019-03-21T20:46:34.751Z,51.90
2019-03-21T20:49:00.939Z,53.17
2019-03-21T20:51:27.514Z,50.10
2019-03-21T20:53:53.859Z,60.70
2019-03-21T20:56:19.868Z,64.27
2019-03-21T20:58:46.350Z,52.40
2019-03-21T21:01:12.538Z,54.50
2019-03-21T21:03:38.557Z,62.80
2019-03-21T21:06:04.695Z,52.20
2019-03-21T21:08:30.987Z,51.80
2019-03-21T21:10:57.041Z,56.00
2019-03-21T21:13:23.269Z,50.23
2019-03-21T21:15:50.059Z,54.43
2019-03-21T21:18:16.343Z,49.67
2019-03-21T21:20:42.650Z,46.87
2019-03-21T21:23:11.053Z,47.23
2019-03-21T21:25:36.741Z,49.90
2019-03-21T21:28:03.203Z,44.13
2019-03-21T21:30:30.662Z,48.80
2019-03-21T21:32:56.958Z,47.03
2019-03-21T21:35:23.120Z,44.20
2019-03-21T21:37:49.432Z,49.80
2019-03-21T21:40:16.654Z,48.07
2019-03-21T21:42:43.898Z,51.17
2019-03-21T21:45:12.392Z,43.97
2019-03-21T21:47:38.614Z,50.10
2019-03-21T21:50:08.020Z,43.27
2019-03-21T21:52:41.926Z,53.50
2019-03-21T21:55:05.307Z,52.30
2019-03-21T21:57:32.253Z,47.80
2019-03-21T21:59:59.267Z,56.43
2019-03-21T22:02:25.834Z,53.53
2019-03-21T22:04:52.747Z,52.73
2019-03-21T22:07:19.407Z,52.10
2019-03-21T22:09:46.503Z,56.80
2019-03-21T22:12:13.202Z,63.70
2019-03-21T22:14:39.349Z,60.33
2019-03-21T22:17:05.425Z,57.97
2019-03-21T22:19:31.655Z,65.87
2019-03-21T22:21:57.779Z,85.73
2019-03-21T22:24:23.913Z,63.67
2019-03-21T22:26:50.585Z,64.63
2019-03-21T22:29:17.286Z,71.13
2019-03-21T22:31:43.579Z,58.83
2019-03-21T22:34:10.020Z,60.77
2019-03-21T22:36:36.208Z,59.27
2019-03-21T22:39:04.836Z,60.40
2019-03-21T22:41:30.988Z,60.77
2019-03-21T22:43:57.100Z,65.67
2019-03-21T22:46:23.175Z,62.13
2019-03-21T22:48:49.451Z,58.47
2019-03-21T22:51:15.474Z,77.80
2019-03-21T22:53:41.603Z,61.23
2019-03-21T22:56:09.190Z,59.43
2019-03-21T22:58:36.545Z,58.67
2019-03-21T23:01:03.667Z,57.33
2019-03-21T23:03:29.792Z,54.40
2019-03-21T23:05:55.865Z,59.87
2019-03-21T23:08:22.354Z,51.57
2019-03-21T23:10:48.497Z,58.50
2019-03-21T23:13:14.627Z,55.23
2019-03-21T23:15:40.805Z,51.77
2019-03-21T23:18:06.929Z,55.57
2019-03-21T23:20:33.225Z,47.77
2019-03-21T23:23:00.952Z,51.90
2019-03-21T23:25:27.002Z,49.73
2019-03-21T23:27:53.107Z,49.07
2019-03-21T23:30:19.458Z,46.70
2019-03-21T23:32:46.509Z,51.30
2019-03-21T23:35:13.066Z,43.50
2019-03-21T23:37:39.122Z,40.50
2019-03-21T23:40:07.956Z,43.13
2019-03-21T23:42:33.990Z,36.50
2019-03-21T23:45:03.057Z,37.47
2019-03-21T23:47:29.508Z,39.60
2019-03-21T23:49:55.644Z,41.53
2019-03-21T23:52:21.668Z,34.17
2019-03-21T23:54:47.692Z,39.80
2019-03-21T23:57:13.847Z,37.47
2019-03-21T23:59:39.894Z,37.23
